createdAt,value
2017-10-21T00:01:14.563Z,14.00
2017-10-21T00:04:16.029Z,13.60
2017-10-21T00:07:17.532Z,13.90
2017-10-21T00:10:19.095Z,15.50
2017-10-21T00:13:20.624Z,13.70
2017-10-21T00:16:22.153Z,13.00
2017-10-21T00:19:23.636Z,13.70
2017-10-21T00:22:25.143Z,12.90
2017-10-21T00:25:26.630Z,13.60
2017-10-21T00:28:28.884Z,14.00
2017-10-21T00:31:30.389Z,14.00
2017-10-21T00:34:32.652Z,13.90
2017-10-21T00:37:34.228Z,12.80
2017-10-21T00:40:36.467Z,13.60
2017-10-21T00:43:37.979Z,12.10
2017-10-21T00:46:39.494Z,15.20
2017-10-21T00:49:41.021Z,12.90
2017-10-21T00:52:42.667Z,13.30
2017-10-21T00:55:44.999Z,13.80
2017-10-21T00:58:46.536Z,12.70
2017-10-21T01:01:48.923Z,13.80
2017-10-21T01:04:50.483Z,14.40
2017-10-21T01:07:52.729Z,13.70
2017-10-21T01:10:54.265Z,12.70
2017-10-21T01:17:03.984Z,13.80
2017-10-21T01:20:05.509Z,12.90
2017-10-21T01:23:07.800Z,13.80
2017-10-21T01:26:10.127Z,13.80
2017-10-21T01:29:11.677Z,14.00
2017-10-21T01:35:21.535Z,13.70
2017-10-21T01:38:23.139Z,13.60
2017-10-21T01:41:25.464Z,13.70
2017-10-21T01:44:26.970Z,14.10
2017-10-21T01:47:29.447Z,13.60
2017-10-21T01:50:30.965Z,13.60
2017-10-21T01:53:32.539Z,13.60
2017-10-21T01:56:34.099Z,13.80
2017-10-21T01:59:35.681Z,14.00
2017-10-21T02:02:37.220Z,13.50
2017-10-21T02:05:39.496Z,13.70
2017-10-21T02:08:41.832Z,13.70
2017-10-21T02:11:43.365Z,12.40
2017-10-21T02:14:44.875Z,12.60
2017-10-21T02:17:47.612Z,13.70
2017-10-21T02:20:49.638Z,13.50
2017-10-21T02:23:51.557Z,14.20
2017-10-21T02:26:53.919Z,13.70
2017-10-21T02:29:55.463Z,14.00
2017-10-21T02:32:57.049Z,13.40
2017-10-21T02:35:58.804Z,14.30
2017-10-21T02:39:00.357Z,13.50
2017-10-21T02:45:10.245Z,13.50
2017-10-21T02:48:11.792Z,13.00
2017-10-21T02:51:13.261Z,13.30
2017-10-21T02:54:15.515Z,13.90
2017-10-21T02:57:17.115Z,13.40
2017-10-21T03:00:18.635Z,12.80
2017-10-21T03:03:20.880Z,13.90
2017-10-21T03:06:22.400Z,14.30
2017-10-21T03:09:23.937Z,14.00
2017-10-21T03:12:25.839Z,15.00
2017-10-21T03:15:27.405Z,12.80
2017-10-21T03:18:29.018Z,14.50
2017-10-21T03:21:30.565Z,14.60
2017-10-21T03:24:32.188Z,12.90
2017-10-21T03:27:33.717Z,13.30
2017-10-21T03:30:35.243Z,13.40
2017-10-21T03:33:36.764Z,13.30
2017-10-21T03:36:39.059Z,13.90
2017-10-21T03:39:41.419Z,14.00
2017-10-21T03:42:42.961Z,13.80
2017-10-21T03:45:45.270Z,13.90
2017-10-21T03:48:46.748Z,13.70
2017-10-21T03:51:48.285Z,12.20
2017-10-21T03:54:49.763Z,13.70
2017-10-21T03:57:51.310Z,13.60
2017-10-21T04:00:52.797Z,12.70
2017-10-21T04:03:54.316Z,12.90
2017-10-21T04:06:55.887Z,13.40
2017-10-21T04:09:57.431Z,13.80
2017-10-21T04:12:58.957Z,14.30
2017-10-21T04:16:00.526Z,13.80
2017-10-21T04:19:02.083Z,14.10
2017-10-21T04:22:03.596Z,13.50
2017-10-21T04:25:05.951Z,14.00
2017-10-21T04:28:08.262Z,13.90
2017-10-21T04:31:09.740Z,13.90
2017-10-21T04:34:11.246Z,13.70
2017-10-21T04:37:13.459Z,13.80
2017-10-21T04:40:15.016Z,12.80
2017-10-21T04:43:16.574Z,14.00
2017-10-21T04:46:18.119Z,13.00
2017-10-21T04:49:19.697Z,12.50
2017-10-21T04:52:21.172Z,13.30
2017-10-21T04:55:22.697Z,13.90
2017-10-21T04:58:24.264Z,13.30
2017-10-21T05:01:25.745Z,14.30
2017-10-21T05:04:28.008Z,13.70
2017-10-21T05:07:29.516Z,14.10
2017-10-21T05:10:31.062Z,13.40
2017-10-21T05:13:32.633Z,14.00
2017-10-21T05:16:34.889Z,13.50
2017-10-21T05:19:36.439Z,13.70
2017-10-21T05:22:37.971Z,13.60
2017-10-21T05:25:40.252Z,13.40
2017-10-21T05:28:41.780Z,13.50
2017-10-21T05:31:43.274Z,12.50
2017-10-21T05:34:44.775Z,12.40
2017-10-21T05:37:46.264Z,13.10
2017-10-21T05:40:48.529Z,13.40
2017-10-21T05:43:50.751Z,13.40
2017-10-21T05:46:52.240Z,13.50
2017-10-21T05:49:53.681Z,13.20
2017-10-21T05:52:55.193Z,12.90
2017-10-21T05:55:56.755Z,11.90
2017-10-21T05:58:58.209Z,13.40
2017-10-21T06:01:59.767Z,12.50
2017-10-21T06:05:01.207Z,14.00
2017-10-21T06:08:02.748Z,13.30
2017-10-21T06:11:04.288Z,13.60
2017-10-21T06:14:06.560Z,13.20
2017-10-21T06:17:08.096Z,13.30
2017-10-21T06:20:09.567Z,13.10
2017-10-21T06:23:11.824Z,13.40
2017-10-21T06:26:13.259Z,13.50
2017-10-21T06:29:15.494Z,13.40
2017-10-21T06:32:16.949Z,13.10
2017-10-21T06:35:18.477Z,12.70
2017-10-21T06:38:20.037Z,12.50
2017-10-21T06:41:21.544Z,12.30
2017-10-21T06:44:23.036Z,12.10
2017-10-21T06:47:25.300Z,13.30
2017-10-21T06:50:26.818Z,14.60
2017-10-21T06:53:28.267Z,13.40
2017-10-21T06:56:29.803Z,14.00
2017-10-21T06:59:31.262Z,13.40
2017-10-21T07:02:32.826Z,12.70
2017-10-21T07:05:34.284Z,13.30
2017-10-21T07:08:35.711Z,12.70
2017-10-21T07:11:37.220Z,12.60
2017-10-21T07:14:38.799Z,12.70
2017-10-21T07:17:40.282Z,13.90
2017-10-21T07:20:41.922Z,12.60
2017-10-21T07:23:43.393Z,14.40
2017-10-21T07:26:44.869Z,14.30
2017-10-21T07:29:46.399Z,12.40
2017-10-21T07:32:47.990Z,13.50
2017-10-21T07:35:49.493Z,13.70
2017-10-21T07:38:50.975Z,13.30
2017-10-21T07:41:52.504Z,12.30
2017-10-21T07:44:54.000Z,13.50
2017-10-21T07:47:55.423Z,13.00
2017-10-21T07:50:56.900Z,13.60
2017-10-21T07:53:59.523Z,13.70
2017-10-21T07:57:00.997Z,12.60
2017-10-21T08:03:03.488Z,13.80
2017-10-21T08:06:05.091Z,13.50
2017-10-21T08:09:07.370Z,13.80
2017-10-21T08:12:09.254Z,14.00
2017-10-21T08:15:10.832Z,14.00
2017-10-21T08:18:12.325Z,12.30
2017-10-21T08:21:14.225Z,14.10
2017-10-21T08:24:15.743Z,13.00
2017-10-21T08:27:17.817Z,12.80
2017-10-21T08:30:20.178Z,13.50
2017-10-21T08:33:21.770Z,13.50
2017-10-21T08:36:23.998Z,13.60
2017-10-21T08:39:25.547Z,12.20
2017-10-21T08:42:27.071Z,13.20
2017-10-21T08:45:29.352Z,13.40
2017-10-21T08:48:30.933Z,12.30
2017-10-21T08:51:32.421Z,13.20
2017-10-21T08:54:33.959Z,12.30
2017-10-21T08:57:35.456Z,12.60
2017-10-21T09:00:37.718Z,13.50
2017-10-21T09:03:39.937Z,13.60
2017-10-21T09:06:41.507Z,13.60
2017-10-21T09:09:43.037Z,13.50
2017-10-21T09:12:44.573Z,12.80
2017-10-21T09:15:46.036Z,12.50
2017-10-21T09:18:47.611Z,12.80
2017-10-21T09:21:49.153Z,13.60
2017-10-21T09:24:50.662Z,13.90
2017-10-21T09:27:52.916Z,13.90
2017-10-21T09:30:54.425Z,13.80
2017-10-21T09:33:55.965Z,13.40
2017-10-21T09:36:57.467Z,13.70
2017-10-21T09:39:59.015Z,13.90
2017-10-21T09:43:00.530Z,13.60
2017-10-21T09:46:02.018Z,13.80
2017-10-21T09:49:03.512Z,13.80
2017-10-21T09:52:05.757Z,14.30
2017-10-21T09:55:07.312Z,14.00
2017-10-21T09:58:08.825Z,13.70
2017-10-21T10:01:10.403Z,13.70
2017-10-21T10:04:11.899Z,13.90
2017-10-21T10:07:13.397Z,14.50
2017-10-21T10:10:14.905Z,14.00
2017-10-21T10:13:17.263Z,14.60
2017-10-21T10:16:18.889Z,13.30
2017-10-21T10:19:20.389Z,13.80
2017-10-21T10:22:21.904Z,13.90
2017-10-21T10:25:23.412Z,14.40
2017-10-21T10:28:25.660Z,14.60
2017-10-21T10:31:27.161Z,14.10
2017-10-21T10:34:28.666Z,14.50
2017-10-21T10:37:30.919Z,14.60
2017-10-21T10:40:32.476Z,14.50
2017-10-21T10:43:34.027Z,13.60
2017-10-21T10:46:35.597Z,14.60
2017-10-21T10:49:37.203Z,14.80
2017-10-21T10:52:38.707Z,14.20
2017-10-21T10:55:40.259Z,14.60
2017-10-21T10:58:41.812Z,15.70
2017-10-21T11:01:43.347Z,14.20
2017-10-21T11:04:44.924Z,13.80
2017-10-21T11:07:46.410Z,15.00
2017-10-21T11:10:48.683Z,14.80
2017-10-21T11:13:50.169Z,13.90
2017-10-21T11:16:51.688Z,14.40
2017-10-21T11:19:53.288Z,15.50
2017-10-21T11:22:54.844Z,14.60
2017-10-21T11:25:56.364Z,14.80
2017-10-21T11:28:57.847Z,14.80
2017-10-21T11:32:00.119Z,15.00
2017-10-21T11:35:01.632Z,14.70
2017-10-21T11:38:03.180Z,15.10
2017-10-21T11:41:05.410Z,15.20
2017-10-21T11:44:06.970Z,15.40
2017-10-21T11:47:08.507Z,14.90
2017-10-21T11:50:10.020Z,14.80
2017-10-21T11:53:12.312Z,15.40
2017-10-21T11:56:13.796Z,14.60
2017-10-21T11:59:15.304Z,14.70
2017-10-21T12:02:17.550Z,15.60
2017-10-21T12:05:19.381Z,14.90
2017-10-21T12:08:21.414Z,15.30
2017-10-21T12:14:31.557Z,15.50
2017-10-21T12:17:33.994Z,15.80
2017-10-21T12:20:35.536Z,15.90
2017-10-21T12:23:37.060Z,16.40
2017-10-21T12:26:39.322Z,15.90
2017-10-21T12:29:41.563Z,15.90
2017-10-21T12:32:44.700Z,16.00
2017-10-21T12:35:46.171Z,15.90
2017-10-21T12:38:47.744Z,15.60
2017-10-21T12:41:49.264Z,16.20
2017-10-21T12:44:51.528Z,16.00
2017-10-21T12:47:53.784Z,16.10
2017-10-21T12:50:56.078Z,16.40
2017-10-21T12:53:58.372Z,16.70
2017-10-21T12:56:59.916Z,16.30
2017-10-21T13:00:01.482Z,16.90
2017-10-21T13:03:02.972Z,17.20
2017-10-21T13:06:04.506Z,16.60
2017-10-21T13:09:06.033Z,17.20
2017-10-21T13:12:07.517Z,16.30
2017-10-21T13:15:09.088Z,16.40
2017-10-21T13:18:10.644Z,16.90
2017-10-21T13:21:12.148Z,16.20
2017-10-21T13:24:13.697Z,15.30
2017-10-21T13:27:15.265Z,16.00
2017-10-21T13:30:16.781Z,15.80
2017-10-21T13:33:18.377Z,15.90
2017-10-21T13:36:19.871Z,16.70
2017-10-21T13:39:21.422Z,14.90
2017-10-21T13:42:22.948Z,16.80
2017-10-21T13:45:24.467Z,15.60
2017-10-21T13:48:26.728Z,16.40
2017-10-21T13:51:28.255Z,16.80
2017-10-21T13:54:29.773Z,16.10
2017-10-21T13:57:31.346Z,16.50
2017-10-21T14:00:32.868Z,16.30
2017-10-21T14:03:35.180Z,16.40
2017-10-21T14:06:36.752Z,16.30
2017-10-21T14:09:38.354Z,15.90
2017-10-21T14:12:39.940Z,15.10
2017-10-21T14:15:41.507Z,15.90
2017-10-21T14:18:43.783Z,16.30
2017-10-21T14:21:45.293Z,15.90
2017-10-21T14:24:46.811Z,16.20
2017-10-21T14:27:48.339Z,16.00
2017-10-21T14:30:49.895Z,16.30
2017-10-21T14:33:51.368Z,16.00
2017-10-21T14:36:53.656Z,16.40
2017-10-21T14:39:55.901Z,16.40
2017-10-21T14:42:57.466Z,16.40
2017-10-21T14:45:59.079Z,15.90
2017-10-21T14:49:00.771Z,15.70
2017-10-21T14:52:03.933Z,15.80
2017-10-21T14:55:06.780Z,15.80
2017-10-21T14:58:09.110Z,16.10
2017-10-21T15:01:12.429Z,15.40
2017-10-21T15:04:14.879Z,15.50
2017-10-21T15:07:17.015Z,16.00
2017-10-21T15:10:19.077Z,15.90
2017-10-21T15:13:21.637Z,15.50
2017-10-21T15:16:23.876Z,16.10
2017-10-21T15:19:25.451Z,15.80
2017-10-21T15:22:27.952Z,15.70
2017-10-21T15:25:32.904Z,15.30
2017-10-21T15:28:34.552Z,14.90
2017-10-21T15:31:37.148Z,16.00
2017-10-21T15:34:40.263Z,16.50
2017-10-21T15:37:42.582Z,15.40
2017-10-21T15:40:44.873Z,15.80
2017-10-21T15:43:46.607Z,15.60
2017-10-21T15:46:48.345Z,15.50
2017-10-21T15:52:58.397Z,15.60
2017-10-21T15:56:00.499Z,15.30
2017-10-21T15:59:02.045Z,15.50
2017-10-21T16:02:03.582Z,15.70
2017-10-21T16:05:05.345Z,15.20
2017-10-21T16:08:07.658Z,15.20
2017-10-21T16:11:09.905Z,15.70
2017-10-21T16:14:13.544Z,15.60
2017-10-21T16:17:16.941Z,15.30
2017-10-21T16:20:18.577Z,16.40
2017-10-21T16:23:22.912Z,15.70
2017-10-21T16:26:25.150Z,15.70
2017-10-21T16:29:26.695Z,15.60
2017-10-21T16:32:28.192Z,16.50
2017-10-21T16:35:30.511Z,15.60
2017-10-21T16:38:32.154Z,15.40
2017-10-21T16:41:34.417Z,16.50
2017-10-21T16:44:36.755Z,15.60
2017-10-21T16:47:38.295Z,15.40
2017-10-21T16:50:40.538Z,15.50
2017-10-21T16:53:42.059Z,14.70
2017-10-21T16:56:43.565Z,15.40
2017-10-21T16:59:45.107Z,15.30
2017-10-21T17:02:46.617Z,15.30
2017-10-21T17:05:48.156Z,16.20
2017-10-21T17:08:50.431Z,15.40
2017-10-21T17:11:52.653Z,15.20
2017-10-21T17:14:54.192Z,15.10
2017-10-21T17:17:55.696Z,15.20
2017-10-21T17:20:58.035Z,15.00
2017-10-21T17:23:59.537Z,14.60
2017-10-21T17:27:01.760Z,15.10
2017-10-21T17:30:03.310Z,14.70
2017-10-21T17:33:04.803Z,15.20
2017-10-21T17:36:06.320Z,14.40
2017-10-21T17:39:07.845Z,14.60
2017-10-21T17:42:09.362Z,14.50
2017-10-21T17:45:10.898Z,14.50
2017-10-21T17:48:12.392Z,14.30
2017-10-21T17:51:13.960Z,15.60
2017-10-21T17:54:15.465Z,14.50
2017-10-21T17:57:17.080Z,14.40
2017-10-21T18:00:18.591Z,13.80
2017-10-21T18:03:20.903Z,14.50
2017-10-21T18:06:22.473Z,15.70
2017-10-21T18:09:23.988Z,14.10
2017-10-21T18:12:26.219Z,14.50
2017-10-21T18:15:27.733Z,13.90
2017-10-21T18:18:29.303Z,14.20
2017-10-21T18:21:30.782Z,13.60
2017-10-21T18:24:32.331Z,14.00
2017-10-21T18:27:33.878Z,14.10
2017-10-21T18:30:36.153Z,14.30
2017-10-21T18:33:37.699Z,14.00
2017-10-21T18:36:39.234Z,14.00
2017-10-21T18:39:40.728Z,13.80
2017-10-21T18:42:42.256Z,13.90
2017-10-21T18:45:43.821Z,13.90
2017-10-21T18:48:45.326Z,13.90
2017-10-21T18:51:46.880Z,14.20
2017-10-21T18:54:49.148Z,14.10
2017-10-21T18:57:51.479Z,14.00
2017-10-21T19:00:52.934Z,13.70
2017-10-21T19:03:55.272Z,14.10
2017-10-21T19:06:56.727Z,14.20
2017-10-21T19:09:58.260Z,14.00
2017-10-21T19:13:00.513Z,14.00
2017-10-21T19:16:02.016Z,13.70
2017-10-21T19:19:03.569Z,13.60
2017-10-21T19:22:05.054Z,13.60
2017-10-21T19:25:06.556Z,13.90
2017-10-21T19:28:08.072Z,12.70
2017-10-21T19:31:09.599Z,13.90
2017-10-21T19:34:11.126Z,15.00
2017-10-21T19:37:12.621Z,13.80
2017-10-21T19:40:14.191Z,14.00
2017-10-21T19:43:15.733Z,14.80
2017-10-21T19:46:17.335Z,14.10
2017-10-21T19:49:19.650Z,14.00
2017-10-21T19:52:21.154Z,14.00
2017-10-21T19:55:23.436Z,14.00
2017-10-21T19:58:25.722Z,14.00
2017-10-21T20:01:27.201Z,13.80
2017-10-21T20:04:28.738Z,13.70
2017-10-21T20:07:30.274Z,14.00
2017-10-21T20:10:31.889Z,13.90
2017-10-21T20:13:33.383Z,13.00
2017-10-21T20:16:34.936Z,13.50
2017-10-21T20:19:36.506Z,12.40
2017-10-21T20:22:38.024Z,14.20
2017-10-21T20:25:39.581Z,14.60
2017-10-21T20:28:41.805Z,13.80
2017-10-21T20:31:43.419Z,13.90
2017-10-21T20:34:45.687Z,13.70
2017-10-21T20:37:48.004Z,13.70
2017-10-21T20:40:49.527Z,12.70
2017-10-21T20:43:51.029Z,12.50
2017-10-21T20:46:52.556Z,13.70
2017-10-21T20:49:54.063Z,13.80
2017-10-21T20:52:56.338Z,13.80
2017-10-21T20:55:58.592Z,13.80
2017-10-21T20:59:00.144Z,13.80
2017-10-21T21:02:01.648Z,13.00
2017-10-21T21:05:03.249Z,14.70
2017-10-21T21:08:04.780Z,13.20
2017-10-21T21:11:06.348Z,13.50
2017-10-21T21:14:07.916Z,14.00
2017-10-21T21:17:09.426Z,13.30
2017-10-21T21:20:11.040Z,13.10
2017-10-21T21:23:13.295Z,13.60
2017-10-21T21:26:14.890Z,15.30
2017-10-21T21:29:16.385Z,12.90
2017-10-21T21:32:17.932Z,13.40
2017-10-21T21:35:19.493Z,13.40
2017-10-21T21:38:20.835Z,13.20
2017-10-21T21:41:22.384Z,12.20
2017-10-21T21:44:23.868Z,14.30
2017-10-21T21:47:25.425Z,12.90
2017-10-21T21:50:26.928Z,13.00
2017-10-21T21:53:28.525Z,12.80
2017-10-21T21:56:30.033Z,13.10
2017-10-21T21:59:32.526Z,13.60
2017-10-21T22:02:34.038Z,13.50
2017-10-21T22:05:35.598Z,13.40
2017-10-21T22:08:37.277Z,12.00
2017-10-21T22:11:38.784Z,12.00
2017-10-21T22:14:40.374Z,13.30
2017-10-21T22:17:42.655Z,13.60
2017-10-21T22:20:44.981Z,13.60
2017-10-21T22:23:47.250Z,13.50
2017-10-21T22:26:48.801Z,13.40
2017-10-21T22:29:50.325Z,13.30
2017-10-21T22:32:52.308Z,13.20
2017-10-21T22:35:54.188Z,13.40
2017-10-21T22:38:55.726Z,12.70
2017-10-21T22:41:57.255Z,13.50
2017-10-21T22:44:58.780Z,13.50
2017-10-21T22:48:00.303Z,13.30
2017-10-21T22:51:02.608Z,13.50
2017-10-21T22:54:04.102Z,12.30
2017-10-21T22:57:05.636Z,12.50
2017-10-21T23:00:07.990Z,13.40
2017-10-21T23:03:10.324Z,13.40
2017-10-21T23:06:11.855Z,14.80
2017-10-21T23:09:13.429Z,12.20
2017-10-21T23:12:14.983Z,13.30
2017-10-21T23:15:16.529Z,13.80
2017-10-21T23:18:17.976Z,13.60
2017-10-21T23:21:19.537Z,12.50
2017-10-21T23:24:21.147Z,12.70
2017-10-21T23:27:23.451Z,13.30
2017-10-21T23:30:25.008Z,13.20
2017-10-21T23:33:26.524Z,13.00
2017-10-21T23:36:28.829Z,13.30
2017-10-21T23:39:30.375Z,13.10
2017-10-21T23:42:31.914Z,13.00
2017-10-21T23:45:33.484Z,13.00
2017-10-21T23:48:37.261Z,13.20
2017-10-21T23:51:39.555Z,13.30
2017-10-21T23:54:41.793Z,13.30
2017-10-21T23:57:43.343Z,13.40
